Time;durP1;ratioP1;P1;durP2;ratioP2;P2;SDS_P1;SDS_P2;PMS_P1;PMS_P2;Temp;Humidity;BMP_temperature;BMP_pressure;BME280_temperature;BME280_humidity;BME280_pressure;Samples;Min_cycle;Max_cycle;Signal;HPM_P1;HPM_P2
2022/10/13 00:00:56;;;;;;;;;;;;;;;14.02;67.14;102116.85;1688912;83;25612;-60
2022/10/13 00:03:24;;;;;;;;;;;;;;;14.02;66.99;102118.69;1702508;83;25716;-60
2022/10/13 00:05:51;;;;;;;;;;;;;;;13.97;67.01;102118.21;1695488;83;27350;-60
2022/10/13 00:08:20;;;;;;;;;;;;;;;13.91;67.05;102120.42;1692081;83;27653;-58
2022/10/13 00:10:49;;;;;;;;;;;;;;;13.87;67.61;102123.02;1690616;83;25707;-58
2022/10/13 00:13:18;;;;;;;;;;;;;;;13.82;67.80;102128.43;1740485;82;25768;-59
2022/10/13 00:15:46;;;;;;;;;;;;;;;13.77;67.99;102124.23;1714211;82;25933;-59
2022/10/13 00:18:14;;;;;;;;;;;;;;;13.80;68.30;102127.22;1704131;82;26031;-58
2022/10/13 00:20:47;;;;;;;;;;;;;;;13.81;68.38;102123.50;1734821;82;27467;-58
2022/10/13 00:23:14;;;;;;;;;;;;;;;13.86;68.04;102131.23;1740400;82;26109;-58
2022/10/13 00:25:46;;;;;;;;;;;;;;;13.88;67.99;102126.57;1708164;81;25725;-58
2022/10/13 00:28:14;;;;;;;;;;;;;;;13.90;67.77;102121.91;1728106;82;25940;-59
2022/10/13 00:30:41;;;;;;;;;;;;;;;13.91;67.51;102131.74;1699037;82;25799;-59
2022/10/13 00:33:09;;;;;;;;;;;;;;;13.89;67.93;102123.77;1727170;82;28292;-60
2022/10/13 00:35:43;;;;;;;;;;;;;;;13.87;67.72;102120.79;1716260;82;25473;-59
2022/10/13 00:38:11;;;;;;;;;;;;;;;13.83;69.65;102126.09;1721943;82;25710;-59
2022/10/13 00:40:49;;;;;;;;;;;;;;;13.64;69.07;102127.58;1724047;82;25816;-59
2022/10/13 00:43:19;;;;;;;;;;;;;;;13.51;68.89;102120.06;1701163;82;25832;-59
2022/10/13 00:45:48;;;;;;;;;;;;;;;13.34;68.71;102123.59;1685100;82;28184;-60
2022/10/13 00:48:13;;;;;;;;;;;;;;;13.22;68.81;102121.87;1718014;82;25860;-58
2022/10/13 00:50:41;;;;;;;;;;;;;;;13.12;68.09;102127.12;1697331;82;25938;-59
2022/10/13 00:53:09;;;;;;;;;;;;;;;13.09;68.00;102130.05;1684556;85;26529;-60
2022/10/13 00:55:37;;;;;;;;;;;;;;;13.08;68.26;102130.55;1710603;82;25781;-59
2022/10/13 00:58:06;;;;;;;;;;;;;;;13.03;67.98;102123.78;1720088;82;27375;-59
2022/10/13 01:00:34;;;;;;;;;;;;;;;13.03;68.04;102126.02;1738332;82;25675;-60
2022/10/13 01:03:01;;;;;;;;;;;;;;;13.06;67.75;102122.20;1698837;82;25818;-59
2022/10/13 01:05:29;;;;;;;;;;;;;;;13.07;67.69;102123.42;1736008;81;25858;-59
2022/10/13 01:07:56;;;;;;;;;;;;;;;13.08;67.60;102121.60;1700350;82;25782;-60
2022/10/13 01:10:35;;;;;;;;;;;;;;;13.11;67.36;102118.17;1683374;82;28194;-59
2022/10/13 01:13:09;;;;;;;;;;;;;;;13.13;67.21;102124.80;1665870;85;25734;-58
2022/10/13 01:15:45;;;;;;;;;;;;;;;13.14;67.11;102121.96;1689737;82;25604;-59
2022/10/13 01:18:41;;;;;;;;;;;;;;;13.18;67.26;102118.52;1709230;82;27981;-59
2022/10/13 01:21:17;;;;;;;;;;;;;;;13.10;67.16;102121.84;1737046;82;25427;-60
2022/10/13 01:24:13;;;;;;;;;;;;;;;13.05;67.25;102119.97;1722651;82;29624;-60
2022/10/13 01:27:00;;;;;;;;;;;;;;;13.01;67.37;102122.56;1683420;82;26068;-60
2022/10/13 01:29:42;;;;;;;;;;;;;;;13.01;67.36;102122.56;1721266;82;25720;-59
2022/10/13 01:32:35;;;;;;;;;;;;;;;13.07;67.40;102118.02;1722695;82;25874;-59
2022/10/13 01:35:20;;;;;;;;;;;;;;;13.12;67.06;102122.59;1689819;82;25697;-61
2022/10/13 01:37:56;;;;;;;;;;;;;;;13.14;66.91;102117.91;1684329;82;27499;-59
2022/10/13 01:40:26;;;;;;;;;;;;;;;13.21;66.91;102120.16;1720933;82;27266;-59
2022/10/13 01:43:09;;;;;;;;;;;;;;;13.26;66.94;102117.94;1707179;82;25686;-59
2022/10/13 01:45:42;;;;;;;;;;;;;;;13.33;66.82;102122.38;1730988;82;26541;-59
2022/10/13 01:48:10;;;;;;;;;;;;;;;13.37;66.86;102127.41;1734516;82;25738;-59
2022/10/13 01:50:39;;;;;;;;;;;;;;;13.43;66.77;102126.95;1707111;82;27534;-59
2022/10/13 01:53:07;;;;;;;;;;;;;;;13.46;66.69;102121.78;1714980;82;25692;-59
2022/10/13 01:55:33;;;;;;;;;;;;;;;13.50;66.61;102121.05;1690094;82;25742;-59
2022/10/13 01:58:00;;;;;;;;;;;;;;;13.52;66.59;102128.08;1687629;82;25784;-59
2022/10/13 02:00:30;;;;;;;;;;;;;;;13.50;66.14;102130.03;1716989;82;27274;-59
2022/10/13 02:03:12;;;;;;;;;;;;;;;13.46;66.08;102118.61;1733736;82;27658;-59
2022/10/13 02:05:49;;;;;;;;;;;;;;;13.42;65.95;102118.47;1731803;82;25665;-59
2022/10/13 02:08:38;;;;;;;;;;;;;;;13.42;65.91;102113.56;1727119;82;25712;-60
2022/10/13 02:11:17;;;;;;;;;;;;;;;13.40;65.86;102116.88;1704371;84;25943;-59
2022/10/13 02:13:50;;;;;;;;;;;;;;;13.38;65.77;102115.63;1653475;82;26390;-61
2022/10/13 02:16:22;;;;;;;;;;;;;;;13.39;65.87;102121.91;1717545;82;27546;-60
2022/10/13 02:18:49;;;;;;;;;;;;;;;13.36;65.64;102124.34;1723410;82;25776;-59
2022/10/13 02:21:16;;;;;;;;;;;;;;;13.34;65.99;102126.80;1735037;82;25708;-59
2022/10/13 02:23:44;;;;;;;;;;;;;;;13.33;65.80;102123.72;1695913;82;25895;-59
2022/10/13 02:26:10;;;;;;;;;;;;;;;13.28;66.20;102133.04;1705969;84;25708;-59
2022/10/13 02:28:37;;;;;;;;;;;;;;;13.19;65.89;102127.51;1692545;82;27550;-59
2022/10/13 02:31:05;;;;;;;;;;;;;;;13.15;65.98;102127.73;1670698;82;25822;-58
2022/10/13 02:33:33;;;;;;;;;;;;;;;13.15;66.81;102129.59;1658510;82;25808;-59
2022/10/13 02:35:59;;;;;;;;;;;;;;;13.03;67.28;102134.12;1701619;82;25832;-59
2022/10/13 02:38:26;;;;;;;;;;;;;;;12.91;67.25;102137.75;1695908;82;26230;-59
2022/10/13 02:40:53;;;;;;;;;;;;;;;12.83;67.94;102138.33;1730562;82;27444;-60
2022/10/13 02:43:21;;;;;;;;;;;;;;;12.79;67.53;102138.20;1681303;82;25497;-60
2022/10/13 02:45:47;;;;;;;;;;;;;;;12.78;67.71;102133.28;1680797;82;25525;-59
2022/10/13 02:48:14;;;;;;;;;;;;;;;12.79;67.55;102136.86;1689772;82;26739;-59
2022/10/13 02:50:40;;;;;;;;;;;;;;;12.78;67.38;102136.48;1718162;82;25739;-60
2022/10/13 02:53:07;;;;;;;;;;;;;;;12.78;67.40;102129.73;1707918;84;28363;-59
2022/10/13 02:55:33;;;;;;;;;;;;;;;12.77;67.42;102133.41;1672261;82;25796;-59
2022/10/13 02:58:00;;;;;;;;;;;;;;;12.75;67.40;102126.78;1721437;82;25737;-60
2022/10/13 03:00:26;;;;;;;;;;;;;;;12.76;67.45;102127.63;1709072;82;25831;-59
2022/10/13 03:02:53;;;;;;;;;;;;;;;12.75;67.31;102128.13;1716952;82;25763;-60
2022/10/13 03:05:20;;;;;;;;;;;;;;;12.74;67.45;102133.16;1724520;82;27464;-59
2022/10/13 03:07:46;;;;;;;;;;;;;;;12.70;67.22;102138.91;1736771;82;26402;-59
2022/10/13 03:10:13;;;;;;;;;;;;;;;12.70;67.31;102134.86;1732375;82;25601;-59
2022/10/13 03:12:39;;;;;;;;;;;;;;;12.72;67.24;102140.52;1734034;82;25804;-59
2022/10/13 03:15:07;;;;;;;;;;;;;;;12.75;67.27;102140.75;1696304;82;25714;-60
2022/10/13 03:17:34;;;;;;;;;;;;;;;12.72;67.14;102145.06;1696321;82;28386;-60
2022/10/13 03:20:00;;;;;;;;;;;;;;;12.68;67.24;102140.39;1699048;82;25740;-60
2022/10/13 03:22:26;;;;;;;;;;;;;;;12.68;67.12;102142.58;1736705;82;25808;-60
2022/10/13 03:24:53;;;;;;;;;;;;;;;12.66;67.25;102143.69;1716939;82;25797;-59
2022/10/13 03:27:19;;;;;;;;;;;;;;;12.67;67.35;102148.95;1730352;82;25773;-59
2022/10/13 03:29:46;;;;;;;;;;;;;;;12.70;67.31;102147.01;1723721;82;27437;-60
2022/10/13 03:32:12;;;;;;;;;;;;;;;12.73;67.37;102149.48;1729774;82;25857;-60
2022/10/13 03:34:39;;;;;;;;;;;;;;;12.75;67.22;102148.39;1734757;82;25495;-60
2022/10/13 03:37:05;;;;;;;;;;;;;;;12.75;67.17;102140.75;1737181;82;25915;-61
2022/10/13 03:39:34;;;;;;;;;;;;;;;12.77;67.22;102149.14;1714574;82;26403;-61
2022/10/13 03:42:01;;;;;;;;;;;;;;;12.81;67.18;102145.71;1708653;82;27390;-60
2022/10/13 03:44:28;;;;;;;;;;;;;;;12.82;67.06;102141.53;1735560;82;25677;-61
2022/10/13 03:46:55;;;;;;;;;;;;;;;12.83;67.12;102141.91;1711736;82;26464;-60
2022/10/13 03:49:21;;;;;;;;;;;;;;;12.86;67.14;102137.26;1697292;82;25798;-60
2022/10/13 03:51:48;;;;;;;;;;;;;;;12.81;66.76;102145.20;1700224;82;25790;-59
2022/10/13 03:54:15;;;;;;;;;;;;;;;12.79;66.81;102140.41;1680973;82;27567;-60
2022/10/13 03:56:42;;;;;;;;;;;;;;;12.81;66.93;102145.20;1724274;82;25859;-60
2022/10/13 03:59:11;;;;;;;;;;;;;;;12.80;66.84;102143.48;1713244;82;25795;-60
2022/10/13 04:01:38;;;;;;;;;;;;;;;12.80;66.80;102139.94;1712435;82;25844;-60
2022/10/13 04:04:06;;;;;;;;;;;;;;;12.76;66.67;102143.36;1687561;82;26434;-60
2022/10/13 04:06:33;;;;;;;;;;;;;;;12.73;66.66;102142.23;1723942;82;27540;-58
2022/10/13 04:09:00;;;;;;;;;;;;;;;12.68;66.95;102138.53;1713854;82;25739;-60
2022/10/13 04:11:26;;;;;;;;;;;;;;;12.61;67.20;102140.45;1732550;82;25743;-61
2022/10/13 04:13:56;;;;;;;;;;;;;;;12.51;67.57;102141.65;1723246;82;26962;-60
2022/10/13 04:16:25;;;;;;;;;;;;;;;12.48;67.89;102133.77;1711084;82;25804;-59
2022/10/13 04:18:55;;;;;;;;;;;;;;;12.44;67.77;102135.84;1712727;82;27660;-61
2022/10/13 04:21:22;;;;;;;;;;;;;;;12.45;67.70;102140.27;1707141;82;25790;-59
2022/10/13 04:23:49;;;;;;;;;;;;;;;12.49;67.79;102139.08;1735654;82;25826;-59
2022/10/13 04:26:19;;;;;;;;;;;;;;;12.45;68.03;102136.22;1736767;82;25718;-59
2022/10/13 04:28:47;;;;;;;;;;;;;;;12.40;67.92;102132.14;1735714;81;25749;-60
2022/10/13 04:31:14;;;;;;;;;;;;;;;12.36;68.73;102136.91;1722381;82;27569;-60
2022/10/13 04:33:41;;;;;;;;;;;;;;;12.28;68.51;102136.12;1700919;82;25761;-61
2022/10/13 04:36:09;;;;;;;;;;;;;;;12.27;68.41;102130.84;1687936;84;25785;-60
2022/10/13 04:38:36;;;;;;;;;;;;;;;12.29;68.51;102135.14;1706828;82;25739;-61
2022/10/13 04:41:04;;;;;;;;;;;;;;;12.33;68.39;102138.00;1708614;82;25815;-60
2022/10/13 04:43:32;;;;;;;;;;;;;;;12.39;68.58;102136.69;1702350;82;28855;-60
2022/10/13 04:46:04;;;;;;;;;;;;;;;12.43;68.54;102138.66;1737048;82;25704;-60
2022/10/13 04:48:31;;;;;;;;;;;;;;;12.47;68.48;102143.72;1694256;82;25783;-61
2022/10/13 04:51:03;;;;;;;;;;;;;;;12.52;68.27;102137.97;1692486;82;25840;-62
2022/10/13 04:53:31;;;;;;;;;;;;;;;12.55;68.22;102143.62;1714160;82;25849;-60
2022/10/13 04:56:02;;;;;;;;;;;;;;;12.51;68.51;102145.70;1701389;82;27503;-61
2022/10/13 04:58:30;;;;;;;;;;;;;;;12.44;68.24;102140.39;1700805;82;25829;-60
2022/10/13 05:00:58;;;;;;;;;;;;;;;12.45;68.26;102146.17;1701521;82;25814;-60
2022/10/13 05:03:25;;;;;;;;;;;;;;;12.46;68.46;102150.59;1702135;82;25841;-60
2022/10/13 05:05:52;;;;;;;;;;;;;;;12.49;68.41;102147.17;1702912;82;25833;-60
2022/10/13 05:08:20;;;;;;;;;;;;;;;12.51;68.34;102144.34;1702326;82;27579;-61
2022/10/13 05:10:55;;;;;;;;;;;;;;;12.53;68.38;102143.25;1684041;83;25788;-61
2022/10/13 05:13:21;;;;;;;;;;;;;;;12.59;68.25;102147.83;1709601;82;25760;-61
2022/10/13 05:15:48;;;;;;;;;;;;;;;12.59;68.17;102147.83;1717167;82;25846;-61
2022/10/13 05:18:16;;;;;;;;;;;;;;;12.60;68.17;102145.48;1714569;82;25766;-60
2022/10/13 05:20:42;;;;;;;;;;;;;;;12.61;68.21;102148.08;1692052;83;27519;-60
2022/10/13 05:23:09;;;;;;;;;;;;;;;12.61;67.98;102149.43;1691514;83;25709;-61
2022/10/13 05:25:36;;;;;;;;;;;;;;;12.62;68.32;102152.98;1695189;83;26512;-61
2022/10/13 05:28:04;;;;;;;;;;;;;;;12.61;68.21;102152.60;1730964;82;25910;-60
2022/10/13 05:30:32;;;;;;;;;;;;;;;12.60;68.33;102154.92;1694335;83;25761;-60
2022/10/13 05:33:00;;;;;;;;;;;;;;;12.60;68.58;102158.50;1687739;84;27629;-60
2022/10/13 05:35:27;;;;;;;;;;;;;;;12.65;68.58;102168.45;1688980;83;26138;-59
2022/10/13 05:37:53;;;;;;;;;;;;;;;12.66;68.67;102163.94;1688192;83;25836;-60
2022/10/13 05:40:20;;;;;;;;;;;;;;;12.71;68.49;102167.13;1690817;83;25869;-60
2022/10/13 05:42:49;;;;;;;;;;;;;;;12.70;68.99;102172.16;1694238;83;27401;-59
2022/10/13 05:45:17;;;;;;;;;;;;;;;12.61;68.85;102171.50;1676938;83;27535;-60
2022/10/13 05:47:44;;;;;;;;;;;;;;;12.51;69.25;102172.69;1697228;82;25826;-60
2022/10/13 05:50:10;;;;;;;;;;;;;;;12.51;69.29;102171.34;1707949;83;25799;-60
2022/10/13 05:52:39;;;;;;;;;;;;;;;12.55;69.06;102173.31;1697112;84;26472;-60
2022/10/13 05:55:08;;;;;;;;;;;;;;;12.56;68.97;102177.24;1692400;83;25918;-60
2022/10/13 05:57:37;;;;;;;;;;;;;;;12.58;68.96;102180.70;1695252;83;27451;-61
2022/10/13 06:00:07;;;;;;;;;;;;;;;12.59;69.11;102181.58;1699734;83;26015;-60
2022/10/13 06:02:45;;;;;;;;;;;;;;;12.62;69.04;102179.97;1686520;83;25750;-61
2022/10/13 06:05:14;;;;;;;;;;;;;;;12.64;68.90;102177.53;1689976;83;25781;-60
2022/10/13 06:07:43;;;;;;;;;;;;;;;12.71;69.31;102183.33;1687650;84;25869;-60
2022/10/13 06:10:10;;;;;;;;;;;;;;;12.75;69.06;102188.01;1695868;83;28180;-60
2022/10/13 06:12:37;;;;;;;;;;;;;;;12.78;68.79;102185.09;1697776;84;25751;-60
2022/10/13 06:15:05;;;;;;;;;;;;;;;12.79;68.66;102183.61;1695197;84;25813;-61
2022/10/13 06:17:36;;;;;;;;;;;;;;;12.82;68.82;102183.39;1690434;83;25780;-59
2022/10/13 06:20:05;;;;;;;;;;;;;;;12.87;68.55;102183.05;1687572;83;25766;-60
2022/10/13 06:22:33;;;;;;;;;;;;;;;12.88;68.61;102183.89;1691114;84;27542;-60
2022/10/13 06:24:59;;;;;;;;;;;;;;;12.91;68.74;102182.31;1695412;83;26066;-60
2022/10/13 06:27:26;;;;;;;;;;;;;;;12.95;68.54;102186.52;1698320;83;25715;-60
2022/10/13 06:29:53;;;;;;;;;;;;;;;12.94;68.64;102188.34;1712798;82;25836;-61
2022/10/13 06:32:20;;;;;;;;;;;;;;;12.96;68.55;102186.86;1731366;83;25681;-61
2022/10/13 06:34:46;;;;;;;;;;;;;;;12.99;68.60;102185.30;1711024;83;27494;-61
2022/10/13 06:37:13;;;;;;;;;;;;;;;13.04;68.34;102187.64;1698270;83;25742;-59
2022/10/13 06:39:40;;;;;;;;;;;;;;;13.05;68.24;102184.81;1697791;83;25699;-60
2022/10/13 06:42:08;;;;;;;;;;;;;;;13.05;68.45;102184.81;1702029;84;25834;-60
2022/10/13 06:44:36;;;;;;;;;;;;;;;13.08;68.54;102192.69;1702099;84;25827;-60
2022/10/13 06:47:04;;;;;;;;;;;;;;;13.12;68.91;102194.19;1701961;83;27520;-60
2022/10/13 06:49:30;;;;;;;;;;;;;;;13.05;68.62;102193.42;1700063;83;25756;-60
2022/10/13 06:51:57;;;;;;;;;;;;;;;13.06;68.64;102193.80;1699475;83;25758;-60
2022/10/13 06:54:23;;;;;;;;;;;;;;;13.09;68.57;102192.19;1702345;83;25830;-60
2022/10/13 06:56:50;;;;;;;;;;;;;;;13.14;68.59;102194.91;1701924;84;26074;-60
2022/10/13 06:59:17;;;;;;;;;;;;;;;13.19;68.67;102186.95;1702088;84;27440;-60
2022/10/13 07:01:47;;;;;;;;;;;;;;;13.23;68.54;102192.48;1693821;83;26510;-59
2022/10/13 07:04:15;;;;;;;;;;;;;;;13.23;68.50;102187.07;1692629;84;26372;-60
2022/10/13 07:06:41;;;;;;;;;;;;;;;13.26;68.53;102194.95;1681910;83;26571;-60
2022/10/13 07:09:08;;;;;;;;;;;;;;;13.27;68.59;102196.67;1709324;83;25719;-60
2022/10/13 07:11:34;;;;;;;;;;;;;;;13.28;68.38;102195.70;1735796;82;27553;-60
2022/10/13 07:14:01;;;;;;;;;;;;;;;13.30;68.48;102188.34;1740603;82;25792;-60
2022/10/13 07:16:28;;;;;;;;;;;;;;;13.26;68.46;102190.90;1740708;82;25764;-59
2022/10/13 07:18:55;;;;;;;;;;;;;;;13.25;68.48;102193.23;1740329;82;27931;-61
2022/10/13 07:21:22;;;;;;;;;;;;;;;13.23;68.52;102189.30;1709764;82;25711;-60
2022/10/13 07:23:48;;;;;;;;;;;;;;;13.22;68.93;102194.33;1727641;82;27487;-60
2022/10/13 07:26:15;;;;;;;;;;;;;;;13.17;68.61;102186.20;1725861;81;25796;-60
2022/10/13 07:28:43;;;;;;;;;;;;;;;13.20;68.88;102192.23;1712890;82;25778;-60
2022/10/13 07:31:13;;;;;;;;;;;;;;;13.26;68.77;102192.25;1711455;83;26418;-61
2022/10/13 07:33:41;;;;;;;;;;;;;;;13.30;68.85;102195.95;1711226;83;26593;-60
2022/10/13 07:36:09;;;;;;;;;;;;;;;13.37;68.70;102193.63;1710894;83;27445;-61
2022/10/13 07:38:35;;;;;;;;;;;;;;;13.40;68.35;102193.91;1709537;82;25754;-60
2022/10/13 07:41:04;;;;;;;;;;;;;;;13.37;68.07;102194.98;1715412;82;25787;-60
2022/10/13 07:43:31;;;;;;;;;;;;;;;13.39;68.17;102193.06;1722620;82;26540;-60
2022/10/13 07:46:01;;;;;;;;;;;;;;;13.43;68.11;102198.58;1699687;82;25577;-59
2022/10/13 07:48:27;;;;;;;;;;;;;;;13.51;68.11;102195.29;1693751;82;27525;-60
2022/10/13 07:50:54;;;;;;;;;;;;;;;13.61;68.16;102199.47;1705135;82;25821;-60
2022/10/13 07:53:21;;;;;;;;;;;;;;;13.72;68.23;102198.14;1708057;83;25760;-60
2022/10/13 07:55:48;;;;;;;;;;;;;;;13.80;67.90;102198.89;1707921;82;25783;-60
2022/10/13 07:58:14;;;;;;;;;;;;;;;13.83;67.92;102199.97;1706676;84;26453;-60
2022/10/13 08:00:41;;;;;;;;;;;;;;;13.84;67.72;102202.20;1703961;82;29714;-60
2022/10/13 08:03:07;;;;;;;;;;;;;;;13.89;67.69;102195.92;1702348;82;25784;-60
2022/10/13 08:05:37;;;;;;;;;;;;;;;13.93;67.60;102198.77;1708142;83;26540;-61
2022/10/13 08:08:04;;;;;;;;;;;;;;;13.95;68.08;102187.30;1694859;83;25811;-60
2022/10/13 08:10:30;;;;;;;;;;;;;;;13.89;67.93;102193.22;1699906;83;25665;-59
2022/10/13 08:12:56;;;;;;;;;;;;;;;13.81;67.90;102195.17;1731207;83;27479;-60
2022/10/13 08:15:23;;;;;;;;;;;;;;;13.80;68.02;102193.48;1708021;83;25996;-59
2022/10/13 08:17:49;;;;;;;;;;;;;;;13.76;67.89;102193.34;1715068;82;25745;-61
2022/10/13 08:20:16;;;;;;;;;;;;;;;13.80;68.03;102190.77;1723903;83;25802;-61
2022/10/13 08:22:43;;;;;;;;;;;;;;;13.88;68.10;102192.37;1702165;84;25756;-60
2022/10/13 08:25:10;;;;;;;;;;;;;;;13.86;68.03;102199.74;1701834;83;27514;-61
2022/10/13 08:27:37;;;;;;;;;;;;;;;13.87;68.06;102192.47;1724312;83;25692;-61
2022/10/13 08:30:06;;;;;;;;;;;;;;;13.87;68.15;102199.23;1730872;83;25844;-61
2022/10/13 08:32:33;;;;;;;;;;;;;;;13.83;68.22;102194.56;1720610;83;26562;-61
2022/10/13 08:34:59;;;;;;;;;;;;;;;13.84;68.22;102199.50;1702082;83;25509;-62
2022/10/13 08:37:27;;;;;;;;;;;;;;;13.84;68.14;102198.15;1709272;82;27486;-61
2022/10/13 08:39:55;;;;;;;;;;;;;;;13.84;68.00;102200.34;1684127;84;25835;-61
2022/10/13 08:42:22;;;;;;;;;;;;;;;13.90;68.07;102197.14;1692627;84;25776;-61
2022/10/13 08:44:51;;;;;;;;;;;;;;;14.02;68.27;102193.97;1688327;83;25814;-60
2022/10/13 08:47:28;;;;;;;;;;;;;;;14.12;67.76;102191.87;1695535;83;25769;-62
2022/10/13 08:49:56;;;;;;;;;;;;;;;14.11;67.39;102186.93;1709286;82;28273;-61
2022/10/13 08:52:25;;;;;;;;;;;;;;;14.13;67.25;102190.38;1710569;84;25791;-58
2022/10/13 08:54:53;;;;;;;;;;;;;;;14.11;66.82;102184.73;1717538;82;25801;-59
2022/10/13 08:57:21;;;;;;;;;;;;;;;14.11;66.74;102188.79;1699562;83;26552;-62
2022/10/13 08:59:48;;;;;;;;;;;;;;;14.11;66.61;102190.98;1690498;84;25764;-61
2022/10/13 09:02:27;;;;;;;;;;;;;;;14.07;66.42;102183.62;1692618;84;27587;-61
2022/10/13 09:04:55;;;;;;;;;;;;;;;14.08;66.37;102187.17;1702273;83;25796;-62
2022/10/13 09:07:24;;;;;;;;;;;;;;;14.05;66.22;102187.44;1736552;82;25757;-61
2022/10/13 09:09:52;;;;;;;;;;;;;;;14.01;66.12;102187.30;1723061;82;25796;-61
2022/10/13 09:12:23;;;;;;;;;;;;;;;13.98;65.89;102189.77;1699157;83;25820;-60
2022/10/13 09:15:02;;;;;;;;;;;;;;;13.99;65.91;102191.50;1685615;83;28410;-62
2022/10/13 09:17:30;;;;;;;;;;;;;;;13.91;65.62;102192.61;1692100;83;25723;-61
2022/10/13 09:20:17;;;;;;;;;;;;;;;13.88;65.79;102195.55;1678305;83;25760;-61
2022/10/13 09:22:44;;;;;;;;;;;;;;;13.88;65.91;102196.43;1705104;82;25850;-60
2022/10/13 09:25:21;;;;;;;;;;;;;;;13.93;65.98;102192.84;1687794;83;25742;-60
2022/10/13 09:27:51;;;;;;;;;;;;;;;13.98;65.72;102193.83;1687808;84;27588;-60
2022/10/13 09:30:27;;;;;;;;;;;;;;;14.02;65.46;102202.08;1702140;83;25782;-61
2022/10/13 09:33:10;;;;;;;;;;;;;;;14.02;65.57;102200.73;1712705;83;25788;-60
2022/10/13 09:35:45;;;;;;;;;;;;;;;14.04;65.53;102197.38;1723301;83;25995;-61
2022/10/13 09:38:21;;;;;;;;;;;;;;;14.07;65.54;102197.14;1723419;82;25876;-60
2022/10/13 09:41:14;;;;;;;;;;;;;;;14.12;65.47;102194.06;1700053;83;27445;-60
2022/10/13 09:43:48;;;;;;;;;;;;;;;14.09;65.15;102193.83;1696323;83;26460;-59
2022/10/13 09:46:33;;;;;;;;;;;;;;;14.09;65.43;102187.06;1682857;83;25745;-60
2022/10/13 09:49:29;;;;;;;;;;;;;;;14.19;65.54;102184.97;1711000;83;25847;-60
2022/10/13 09:52:01;;;;;;;;;;;;;;;14.31;65.34;102189.86;1686519;83;25830;-60
2022/10/13 09:54:48;;;;;;;;;;;;;;;14.37;64.78;102187.99;1696859;84;29732;-61
2022/10/13 09:57:34;;;;;;;;;;;;;;;14.28;64.79;102190.98;1687248;84;25741;-60
2022/10/13 10:00:07;;;;;;;;;;;;;;;14.24;65.12;102194.43;1653578;84;25581;-61
2022/10/13 10:03:00;;;;;;;;;;;;;;;14.31;65.25;102188.50;1666214;86;25975;-60
2022/10/13 10:05:45;;;;;;;;;;;;;;;14.40;65.12;102183.18;1677516;83;25787;-60
2022/10/13 10:08:28;;;;;;;;;;;;;;;14.41;64.48;102181.35;1698216;83;27714;-60
2022/10/13 10:10:55;;;;;;;;;;;;;;;14.38;64.71;102181.12;1697144;83;25882;-60
2022/10/13 10:13:24;;;;;;;;;;;;;;;14.44;64.62;102170.75;1718069;82;25797;-61
2022/10/13 10:16:11;;;;;;;;;;;;;;;14.36;64.57;102176.80;1718266;83;26441;-60
2022/10/13 10:18:50;;;;;;;;;;;;;;;14.29;64.61;102175.11;1718631;83;25771;-60
2022/10/13 10:21:32;;;;;;;;;;;;;;;14.30;64.60;102173.25;1683409;83;28377;-61
2022/10/13 10:24:17;;;;;;;;;;;;;;;14.32;64.56;102165.87;1647514;85;25688;-60
2022/10/13 10:26:59;;;;;;;;;;;;;;;14.38;64.85;102159.46;1703799;83;26505;-60
2022/10/13 10:29:54;;;;;;;;;;;;;;;14.42;64.55;102160.54;1709575;83;26438;-60
2022/10/13 10:32:40;;;;;;;;;;;;;;;14.50;64.80;102154.87;1704104;83;25879;-60
2022/10/13 10:35:36;;;;;;;;;;;;;;;14.52;64.54;102156.08;1702103;84;27539;-61
2022/10/13 10:38:22;;;;;;;;;;;;;;;14.53;64.06;102153.74;1702009;84;25985;-60
2022/10/13 10:41:02;;;;;;;;;;;;;;;14.48;63.97;102157.31;1701266;83;25764;-60
2022/10/13 10:43:50;;;;;;;;;;;;;;;14.34;64.15;102159.33;1692932;84;25812;-60
2022/10/13 10:46:28;;;;;;;;;;;;;;;14.37;64.41;102148.73;1694202;84;25757;-60
2022/10/13 10:48:58;;;;;;;;;;;;;;;14.33;64.41;102141.37;1709279;83;28369;-61
2022/10/13 10:51:28;;;;;;;;;;;;;;;14.35;64.63;102145.30;1707543;83;25730;-59
2022/10/13 10:54:07;;;;;;;;;;;;;;;14.43;64.84;102140.60;1718166;83;25817;-60
2022/10/13 10:56:39;;;;;;;;;;;;;;;14.49;64.91;102134.66;1711900;83;25873;-61
2022/10/13 10:59:26;;;;;;;;;;;;;;;14.56;64.74;102130.48;1667903;84;25747;-60
2022/10/13 11:02:09;;;;;;;;;;;;;;;14.62;64.65;102129.08;1709494;83;27500;-60
2022/10/13 11:04:42;;;;;;;;;;;;;;;14.66;64.49;102131.91;1690495;83;25698;-61
2022/10/13 11:07:24;;;;;;;;;;;;;;;14.59;64.11;102134.27;1720729;83;25781;-62
2022/10/13 11:09:56;;;;;;;;;;;;;;;14.50;64.09;102128.27;1716531;82;25849;-61
2022/10/13 11:12:23;;;;;;;;;;;;;;;14.37;64.13;102132.02;1679194;83;26181;-61
2022/10/13 11:15:07;;;;;;;;;;;;;;;14.35;64.75;102125.86;1725115;83;27451;-61
2022/10/13 11:17:40;;;;;;;;;;;;;;;14.35;64.78;102126.34;1692585;83;25716;-62
2022/10/13 11:20:20;;;;;;;;;;;;;;;14.35;64.99;102123.16;1696253;82;25770;-60
2022/10/13 11:22:59;;;;;;;;;;;;;;;14.36;65.02;102128.06;1732999;82;25948;-61
2022/10/13 11:25:45;;;;;;;;;;;;;;;14.35;65.14;102123.16;1712361;82;25859;-60
2022/10/13 11:28:22;;;;;;;;;;;;;;;14.35;65.06;102119.09;1693755;82;28125;-60
2022/10/13 11:30:54;;;;;;;;;;;;;;;14.38;65.06;102119.33;1703193;82;25736;-60
2022/10/13 11:33:39;;;;;;;;;;;;;;;14.39;65.12;102116.48;1692098;83;25894;-61
2022/10/13 11:36:44;;;;;;;;;;;;;;;14.40;65.07;102111.95;1719165;82;25836;-61
2022/10/13 11:39:27;;;;;;;;;;;;;;;14.42;65.03;102110.45;1734283;82;25728;-61
2022/10/13 11:42:12;;;;;;;;;;;;;;;14.42;64.88;102109.09;1735463;82;27532;-61
2022/10/13 11:45:00;;;;;;;;;;;;;;;14.40;64.84;102105.18;1695066;82;25759;-61
2022/10/13 11:48:02;;;;;;;;;;;;;;;14.39;65.09;102108.36;1722580;82;25725;-61
2022/10/13 11:50:51;;;;;;;;;;;;;;;14.39;64.91;102101.59;1666192;84;25838;-61
2022/10/13 11:53:26;;;;;;;;;;;;;;;14.43;64.81;102097.28;1708156;82;25776;-61
2022/10/13 11:55:55;;;;;;;;;;;;;;;14.45;64.24;102090.75;1722929;81;28300;-62
2022/10/13 11:58:24;;;;;;;;;;;;;;;14.48;64.24;102090.98;1710697;82;25722;-61
2022/10/13 12:00:55;;;;;;;;;;;;;;;14.51;64.09;102092.08;1709168;83;25749;-61
2022/10/13 12:03:28;;;;;;;;;;;;;;;14.61;64.16;102084.05;1709942;82;25808;-61
2022/10/13 12:05:58;;;;;;;;;;;;;;;14.71;63.75;102076.86;1708760;83;25716;-61
2022/10/13 12:08:27;;;;;;;;;;;;;;;14.73;63.62;102080.31;1692525;84;27489;-61
2022/10/13 12:10:57;;;;;;;;;;;;;;;14.73;63.08;102068.63;1708382;83;25743;-61
2022/10/13 12:13:25;;;;;;;;;;;;;;;14.72;63.42;102071.81;1708006;83;25774;-61
2022/10/13 12:15:59;;;;;;;;;;;;;;;14.76;63.31;102077.83;1702253;83;25774;-61
2022/10/13 12:18:37;;;;;;;;;;;;;;;14.78;63.47;102082.14;1691575;83;25711;-61
2022/10/13 12:21:12;;;;;;;;;;;;;;;14.75;63.18;102077.48;1693463;83;27466;-61
2022/10/13 12:23:40;;;;;;;;;;;;;;;14.73;63.09;102078.11;1718382;82;25726;-61
2022/10/13 12:26:09;;;;;;;;;;;;;;;14.71;63.00;102077.74;1711546;83;25704;-61
2022/10/13 12:28:46;;;;;;;;;;;;;;;14.63;62.68;102070.73;1704933;83;25867;-59
2022/10/13 12:31:21;;;;;;;;;;;;;;;14.60;62.82;102070.14;1727621;82;25714;-60
2022/10/13 12:33:56;;;;;;;;;;;;;;;14.55;62.81;102070.53;1722071;83;28433;-60
2022/10/13 12:36:30;;;;;;;;;;;;;;;14.43;63.08;102064.80;1692814;83;25784;-60
2022/10/13 12:39:05;;;;;;;;;;;;;;;14.34;63.31;102060.53;1719281;83;25766;-59
2022/10/13 12:41:35;;;;;;;;;;;;;;;14.31;63.43;102059.93;1696635;83;25811;-60
2022/10/13 12:44:03;;;;;;;;;;;;;;;14.24;63.77;102059.58;1702857;83;25735;-60
2022/10/13 12:46:45;;;;;;;;;;;;;;;14.22;63.88;102060.20;1688365;84;28419;-60
2022/10/13 12:49:15;;;;;;;;;;;;;;;14.22;63.92;102057.48;1710328;82;25919;-60
2022/10/13 12:51:44;;;;;;;;;;;;;;;14.26;63.99;102057.61;1700760;82;25704;-60
2022/10/13 12:54:21;;;;;;;;;;;;;;;14.23;64.07;102054.67;1721940;82;25777;-60
2022/10/13 12:56:48;;;;;;;;;;;;;;;14.18;64.07;102052.83;1707359;82;26157;-60